DLH109B EDDH-ESGG
Flight info
| Callsign | DLH109B |
|---|---|
| Flight time | 0h 51m |
| Altitude | 35000 |
| Route | SOKWO1G SOKWO T814 EXNEL M105 AMRAK DCT GOTEX N873 LOBBI |
| Aircraft | A20N/M-SDE2E3FGHIRWXY/LB1 |
Departure
| Time | 2026-05-06 17:57 |
|---|---|
| Airport | Hamburg Helmut Schmidt Airport (EDDH) |
Arrival
| Time | 2026-05-06 18:48 |
|---|---|
| Airport | Göteborg Landvetter Airport (ESGG) |
| Time | Latitude | Longitude | Altitude | Speed | Heading |
|---|---|---|---|---|---|
| 2026-05-06 17:15 | 53.62736 | 10.00302 | 50 ft | 0 kts | 63° |
| 2026-05-06 17:51 | 53.62731 | 10.00284 | 48 ft | 3 kts | 63° |
| 2026-05-06 17:51 | 53.62721 | 10.00251 | 45 ft | 3 kts | 63° |
| 2026-05-06 17:51 | 53.62710 | 10.00213 | 47 ft | 4 kts | 82° |
| 2026-05-06 17:52 | 53.62714 | 10.00184 | 50 ft | 0 kts | 147° |
| 2026-05-06 17:53 | 53.62707 | 10.00191 | 48 ft | 4 kts | 150° |
| 2026-05-06 17:53 | 53.62663 | 10.00230 | 50 ft | 10 kts | 153° |
| 2026-05-06 17:54 | 53.62603 | 10.00269 | 50 ft | 10 kts | 180° |
| 2026-05-06 17:54 | 53.62572 | 10.00216 | 49 ft | 9 kts | 247° |
| 2026-05-06 17:54 | 53.62564 | 10.00183 | 45 ft | 0 kts | 245° |
| 2026-05-06 17:55 | 53.62564 | 10.00182 | 45 ft | 0 kts | 245° |
| 2026-05-06 17:55 | 53.62542 | 10.00071 | 46 ft | 21 kts | 271° |
| 2026-05-06 17:56 | 53.62602 | 9.99967 | 47 ft | 0 kts | 333° |
| 2026-05-06 17:57 | 53.62616 | 9.99955 | 47 ft | 20 kts | 333° |
| 2026-05-06 17:57 | 53.63017 | 9.99611 | 48 ft | 106 kts | 333° |
| 2026-05-06 17:57 | 53.63883 | 9.98863 | 101 ft | 167 kts | 335° |
| 2026-05-06 17:57 | 53.64958 | 9.97887 | 662 ft | 183 kts | 334° |
| 2026-05-06 17:58 | 53.66032 | 9.96929 | 1420 ft | 160 kts | 338° |
| 2026-05-06 17:58 | 53.67002 | 9.96110 | 1854 ft | 160 kts | 340° |
| 2026-05-06 17:58 | 53.68095 | 9.95240 | 2274 ft | 186 kts | 342° |
| 2026-05-06 17:58 | 53.69412 | 9.94671 | 2676 ft | 205 kts | 359° |
| 2026-05-06 17:59 | 53.70854 | 9.94664 | 3115 ft | 209 kts | 5° |
| 2026-05-06 17:59 | 53.72300 | 9.94697 | 3545 ft | 212 kts | 5° |
| 2026-05-06 17:59 | 53.73739 | 9.95124 | 3989 ft | 210 kts | 24° |
| 2026-05-06 17:59 | 53.75020 | 9.96345 | 4721 ft | 216 kts | 36° |
| 2026-05-06 18:00 | 53.76327 | 9.97819 | 5304 ft | 237 kts | 34° |
| 2026-05-06 18:00 | 53.77777 | 9.99411 | 5870 ft | 257 kts | 34° |
| 2026-05-06 18:00 | 53.79298 | 10.01062 | 6775 ft | 261 kts | 33° |
| 2026-05-06 18:00 | 53.80840 | 10.02738 | 7712 ft | 265 kts | 33° |
| 2026-05-06 18:01 | 53.82409 | 10.04448 | 8644 ft | 270 kts | 33° |
| 2026-05-06 18:01 | 53.83999 | 10.06187 | 9580 ft | 274 kts | 32° |
| 2026-05-06 18:01 | 53.85622 | 10.07966 | 10343 ft | 285 kts | 32° |
| 2026-05-06 18:01 | 53.87371 | 10.09864 | 10624 ft | 310 kts | 29° |
| 2026-05-06 18:02 | 53.89424 | 10.11160 | 10924 ft | 331 kts | 9° |
| 2026-05-06 18:02 | 53.91752 | 10.11122 | 11590 ft | 339 kts | 349° |
| 2026-05-06 18:02 | 53.94067 | 10.10182 | 12323 ft | 346 kts | 346° |
| 2026-05-06 18:02 | 53.96428 | 10.09178 | 13070 ft | 353 kts | 345° |
| 2026-05-06 18:03 | 53.98700 | 10.08208 | 13773 ft | 359 kts | 345° |
| 2026-05-06 18:03 | 54.01135 | 10.07170 | 14497 ft | 362 kts | 345° |
| 2026-05-06 18:03 | 54.03587 | 10.06127 | 15254 ft | 365 kts | 345° |
| 2026-05-06 18:03 | 54.06066 | 10.05075 | 15968 ft | 369 kts | 345° |
| 2026-05-06 18:04 | 54.08571 | 10.04003 | 16677 ft | 373 kts | 341° |
| 2026-05-06 18:04 | 54.10956 | 10.02253 | 17361 ft | 374 kts | 327° |
| 2026-05-06 18:04 | 54.13032 | 9.99566 | 18032 ft | 376 kts | 313° |
| 2026-05-06 18:04 | 54.14802 | 9.96255 | 18633 ft | 379 kts | 310° |
| 2026-05-06 18:05 | 54.16547 | 9.92926 | 19255 ft | 382 kts | 310° |
| 2026-05-06 18:05 | 54.18326 | 9.89539 | 19871 ft | 385 kts | 310° |
| 2026-05-06 18:05 | 54.20123 | 9.86117 | 20457 ft | 388 kts | 310° |
| 2026-05-06 18:05 | 54.21928 | 9.82676 | 21080 ft | 390 kts | 310° |
| 2026-05-06 18:06 | 54.23775 | 9.79240 | 21692 ft | 394 kts | 313° |
| 2026-05-06 18:06 | 54.25859 | 9.76149 | 22299 ft | 399 kts | 321° |
| 2026-05-06 18:06 | 54.28125 | 9.73348 | 22900 ft | 402 kts | 322° |
| 2026-05-06 18:06 | 54.30396 | 9.70524 | 23492 ft | 405 kts | 321° |
| 2026-05-06 18:07 | 54.32616 | 9.67745 | 23963 ft | 407 kts | 321° |
| 2026-05-06 18:07 | 54.35034 | 9.64972 | 24437 ft | 413 kts | 330° |
| 2026-05-06 18:07 | 54.37722 | 9.63267 | 24876 ft | 421 kts | 345° |
| 2026-05-06 18:07 | 54.40656 | 9.62774 | 25347 ft | 428 kts | 0° |
| 2026-05-06 18:08 | 54.43635 | 9.63435 | 25775 ft | 433 kts | 9° |
| 2026-05-06 18:08 | 54.46596 | 9.64455 | 26197 ft | 437 kts | 10° |
| 2026-05-06 18:08 | 54.49586 | 9.65536 | 26626 ft | 440 kts | 10° |
| 2026-05-06 18:08 | 54.52600 | 9.66601 | 26862 ft | 443 kts | 9° |
| 2026-05-06 18:09 | 54.55630 | 9.67621 | 26912 ft | 443 kts | 9° |
| 2026-05-06 18:09 | 54.58656 | 9.68594 | 26909 ft | 443 kts | 8° |
| 2026-05-06 18:09 | 54.61693 | 9.69554 | 26914 ft | 443 kts | 8° |
| 2026-05-06 18:09 | 54.64732 | 9.70513 | 26917 ft | 443 kts | 8° |
| 2026-05-06 18:10 | 54.67776 | 9.71411 | 26911 ft | 443 kts | 7° |
| 2026-05-06 18:10 | 54.70831 | 9.72183 | 26926 ft | 443 kts | 6° |
| 2026-05-06 18:10 | 54.73891 | 9.72927 | 26925 ft | 444 kts | 6° |
| 2026-05-06 18:10 | 54.76908 | 9.73668 | 26931 ft | 444 kts | 6° |
| 2026-05-06 18:11 | 54.79973 | 9.74436 | 26936 ft | 444 kts | 6° |
| 2026-05-06 18:11 | 54.83015 | 9.75503 | 26939 ft | 447 kts | 14° |
| 2026-05-06 18:11 | 54.85978 | 9.77198 | 26938 ft | 448 kts | 18° |
| 2026-05-06 18:11 | 54.88934 | 9.78991 | 26937 ft | 448 kts | 17° |
| 2026-05-06 18:12 | 54.91887 | 9.80760 | 26938 ft | 449 kts | 17° |
| 2026-05-06 18:12 | 54.94800 | 9.82503 | 26939 ft | 449 kts | 17° |
| 2026-05-06 18:12 | 54.97761 | 9.84280 | 26940 ft | 449 kts | 17° |
| 2026-05-06 18:12 | 55.00720 | 9.86064 | 26940 ft | 450 kts | 17° |
| 2026-05-06 18:13 | 55.03679 | 9.87852 | 26937 ft | 450 kts | 17° |
| 2026-05-06 18:13 | 55.06638 | 9.89646 | 26938 ft | 451 kts | 17° |
| 2026-05-06 18:13 | 55.09603 | 9.91446 | 26937 ft | 450 kts | 17° |
| 2026-05-06 18:13 | 55.12570 | 9.93251 | 26936 ft | 451 kts | 17° |
| 2026-05-06 18:14 | 55.15533 | 9.95056 | 26935 ft | 451 kts | 17° |
| 2026-05-06 18:14 | 55.18503 | 9.96869 | 26934 ft | 451 kts | 17° |
| 2026-05-06 18:14 | 55.21467 | 9.98680 | 26933 ft | 452 kts | 17° |
| 2026-05-06 18:14 | 55.24436 | 10.00496 | 26935 ft | 452 kts | 17° |
| 2026-05-06 18:15 | 55.27401 | 10.02313 | 26935 ft | 452 kts | 17° |
| 2026-05-06 18:15 | 55.30376 | 10.04140 | 26936 ft | 452 kts | 17° |
| 2026-05-06 18:15 | 55.33313 | 10.05946 | 26938 ft | 453 kts | 17° |
| 2026-05-06 18:15 | 55.36286 | 10.07777 | 26937 ft | 453 kts | 17° |
| 2026-05-06 18:16 | 55.39267 | 10.09616 | 26938 ft | 453 kts | 17° |
| 2026-05-06 18:16 | 55.42251 | 10.11460 | 26943 ft | 454 kts | 17° |
| 2026-05-06 18:16 | 55.45236 | 10.13282 | 26937 ft | 454 kts | 15° |
| 2026-05-06 18:16 | 55.48228 | 10.15054 | 26939 ft | 454 kts | 15° |
| 2026-05-06 18:17 | 55.51231 | 10.16852 | 26937 ft | 455 kts | 15° |
| 2026-05-06 18:17 | 55.54227 | 10.18684 | 26943 ft | 455 kts | 16° |
| 2026-05-06 18:17 | 55.57215 | 10.20534 | 26942 ft | 455 kts | 15° |
| 2026-05-06 18:17 | 55.60215 | 10.22365 | 26940 ft | 456 kts | 15° |
| 2026-05-06 18:18 | 55.63173 | 10.24183 | 26940 ft | 456 kts | 15° |
| 2026-05-06 18:18 | 55.66169 | 10.26050 | 26941 ft | 456 kts | 15° |
| 2026-05-06 18:18 | 55.69161 | 10.27934 | 26921 ft | 457 kts | 16° |
| 2026-05-06 18:18 | 55.72158 | 10.29836 | 26671 ft | 457 kts | 17° |
| 2026-05-06 18:19 | 55.75139 | 10.31756 | 26285 ft | 454 kts | 17° |
| 2026-05-06 18:19 | 55.78095 | 10.33662 | 25907 ft | 450 kts | 17° |
| 2026-05-06 18:19 | 55.81028 | 10.35545 | 25539 ft | 446 kts | 16° |
| 2026-05-06 18:19 | 55.83946 | 10.37410 | 25174 ft | 444 kts | 16° |
| 2026-05-06 18:20 | 55.86851 | 10.39261 | 24800 ft | 442 kts | 16° |
| 2026-05-06 18:20 | 55.89739 | 10.41101 | 24439 ft | 439 kts | 16° |
| 2026-05-06 18:20 | 55.92609 | 10.42932 | 24086 ft | 437 kts | 16° |
| 2026-05-06 18:20 | 55.95430 | 10.44733 | 23737 ft | 434 kts | 16° |
| 2026-05-06 18:21 | 55.98263 | 10.46545 | 23368 ft | 431 kts | 16° |
| 2026-05-06 18:21 | 56.01079 | 10.48348 | 22952 ft | 428 kts | 16° |
| 2026-05-06 18:21 | 56.03909 | 10.50163 | 22524 ft | 424 kts | 16° |
| 2026-05-06 18:21 | 56.06677 | 10.51940 | 22109 ft | 421 kts | 16° |
| 2026-05-06 18:22 | 56.09384 | 10.53680 | 21690 ft | 417 kts | 16° |
| 2026-05-06 18:22 | 56.12107 | 10.55432 | 21279 ft | 413 kts | 16° |
| 2026-05-06 18:22 | 56.14804 | 10.57170 | 20864 ft | 410 kts | 16° |
| 2026-05-06 18:22 | 56.17481 | 10.58897 | 20458 ft | 407 kts | 16° |
| 2026-05-06 18:23 | 56.20141 | 10.60615 | 20058 ft | 403 kts | 16° |
| 2026-05-06 18:23 | 56.22769 | 10.62316 | 19654 ft | 400 kts | 17° |
| 2026-05-06 18:23 | 56.25367 | 10.63999 | 19273 ft | 397 kts | 17° |
| 2026-05-06 18:23 | 56.27963 | 10.65683 | 18881 ft | 393 kts | 17° |
| 2026-05-06 18:24 | 56.30523 | 10.67345 | 18504 ft | 390 kts | 17° |
| 2026-05-06 18:24 | 56.33033 | 10.68978 | 18110 ft | 387 kts | 17° |
| 2026-05-06 18:24 | 56.35558 | 10.70622 | 17672 ft | 383 kts | 17° |
| 2026-05-06 18:24 | 56.38056 | 10.72249 | 17242 ft | 380 kts | 17° |
| 2026-05-06 18:25 | 56.40528 | 10.73863 | 16814 ft | 376 kts | 17° |
| 2026-05-06 18:25 | 56.42987 | 10.75469 | 16393 ft | 373 kts | 17° |
| 2026-05-06 18:25 | 56.45419 | 10.77061 | 15976 ft | 370 kts | 17° |
| 2026-05-06 18:25 | 56.47832 | 10.78642 | 15583 ft | 367 kts | 17° |
| 2026-05-06 18:26 | 56.50230 | 10.80215 | 15243 ft | 365 kts | 18° |
| 2026-05-06 18:26 | 56.52611 | 10.81779 | 14928 ft | 363 kts | 18° |
| 2026-05-06 18:26 | 56.54980 | 10.83337 | 14604 ft | 360 kts | 18° |
| 2026-05-06 18:26 | 56.57329 | 10.84885 | 14284 ft | 358 kts | 18° |
| 2026-05-06 18:27 | 56.59632 | 10.86403 | 13963 ft | 356 kts | 18° |
| 2026-05-06 18:27 | 56.61979 | 10.87953 | 13637 ft | 353 kts | 18° |
| 2026-05-06 18:27 | 56.64252 | 10.89457 | 13340 ft | 351 kts | 18° |
| 2026-05-06 18:27 | 56.66542 | 10.90974 | 13074 ft | 349 kts | 18° |
| 2026-05-06 18:28 | 56.68821 | 10.92485 | 12962 ft | 348 kts | 18° |
| 2026-05-06 18:28 | 56.71098 | 10.93997 | 12956 ft | 349 kts | 18° |
| 2026-05-06 18:28 | 56.73378 | 10.95513 | 12956 ft | 349 kts | 18° |
| 2026-05-06 18:28 | 56.75662 | 10.97034 | 12954 ft | 349 kts | 18° |
| 2026-05-06 18:29 | 56.77946 | 10.98556 | 12959 ft | 349 kts | 18° |
| 2026-05-06 18:29 | 56.80226 | 11.00078 | 12957 ft | 349 kts | 18° |
| 2026-05-06 18:29 | 56.82509 | 11.01605 | 12959 ft | 349 kts | 18° |
| 2026-05-06 18:29 | 56.84793 | 11.03134 | 12956 ft | 349 kts | 18° |
| 2026-05-06 18:30 | 56.87071 | 11.04660 | 12960 ft | 349 kts | 18° |
| 2026-05-06 18:30 | 56.89363 | 11.06198 | 12960 ft | 350 kts | 18° |
| 2026-05-06 18:30 | 56.91644 | 11.07731 | 12961 ft | 349 kts | 18° |
| 2026-05-06 18:30 | 56.93926 | 11.09266 | 12961 ft | 349 kts | 18° |
| 2026-05-06 18:31 | 56.96213 | 11.10806 | 12956 ft | 350 kts | 18° |
| 2026-05-06 18:31 | 56.98466 | 11.12326 | 12959 ft | 349 kts | 18° |
| 2026-05-06 18:31 | 57.00750 | 11.13868 | 12958 ft | 349 kts | 18° |
| 2026-05-06 18:31 | 57.03036 | 11.15413 | 12958 ft | 349 kts | 18° |
| 2026-05-06 18:32 | 57.05315 | 11.16957 | 12956 ft | 349 kts | 18° |
| 2026-05-06 18:32 | 57.07603 | 11.18507 | 12956 ft | 350 kts | 18° |
| 2026-05-06 18:32 | 57.09884 | 11.20055 | 12961 ft | 350 kts | 18° |
| 2026-05-06 18:32 | 57.12173 | 11.21610 | 12956 ft | 350 kts | 18° |
| 2026-05-06 18:33 | 57.14459 | 11.23165 | 12961 ft | 350 kts | 18° |
| 2026-05-06 18:33 | 57.16714 | 11.24699 | 12961 ft | 350 kts | 18° |
| 2026-05-06 18:33 | 57.18973 | 11.26358 | 12960 ft | 351 kts | 25° |
| 2026-05-06 18:33 | 57.21053 | 11.28757 | 12958 ft | 353 kts | 37° |
| 2026-05-06 18:34 | 57.22832 | 11.31897 | 12963 ft | 354 kts | 46° |
| 2026-05-06 18:34 | 57.24499 | 11.35252 | 12903 ft | 355 kts | 46° |
| 2026-05-06 18:34 | 57.26180 | 11.38600 | 12632 ft | 354 kts | 46° |
| 2026-05-06 18:34 | 57.27842 | 11.41904 | 12296 ft | 347 kts | 46° |
| 2026-05-06 18:35 | 57.29470 | 11.45144 | 11936 ft | 341 kts | 46° |
| 2026-05-06 18:35 | 57.31068 | 11.48332 | 11545 ft | 335 kts | 46° |
| 2026-05-06 18:35 | 57.32641 | 11.51474 | 11159 ft | 330 kts | 46° |
| 2026-05-06 18:35 | 57.34188 | 11.54569 | 10765 ft | 324 kts | 46° |
| 2026-05-06 18:36 | 57.35701 | 11.57597 | 10369 ft | 318 kts | 46° |
| 2026-05-06 18:36 | 57.37193 | 11.60587 | 10055 ft | 312 kts | 47° |
| 2026-05-06 18:36 | 57.38636 | 11.63484 | 9962 ft | 298 kts | 47° |
| 2026-05-06 18:36 | 57.39988 | 11.66203 | 9953 ft | 288 kts | 47° |
| 2026-05-06 18:37 | 57.41369 | 11.68982 | 9954 ft | 293 kts | 47° |
| 2026-05-06 18:37 | 57.42301 | 11.70861 | 9949 ft | 292 kts | 47° |
| 2026-05-06 18:37 | 57.44123 | 11.74539 | 9950 ft | 292 kts | 47° |
| 2026-05-06 18:37 | 57.45505 | 11.77330 | 9830 ft | 294 kts | 47° |
| 2026-05-06 18:38 | 57.46881 | 11.80115 | 9558 ft | 291 kts | 47° |
| 2026-05-06 18:38 | 57.48245 | 11.82876 | 9201 ft | 291 kts | 48° |
| 2026-05-06 18:38 | 57.49622 | 11.85667 | 8729 ft | 293 kts | 48° |
| 2026-05-06 18:38 | 57.50986 | 11.88435 | 8255 ft | 294 kts | 48° |
| 2026-05-06 18:39 | 57.52370 | 11.91250 | 7770 ft | 295 kts | 48° |
| 2026-05-06 18:39 | 57.53780 | 11.94121 | 7317 ft | 306 kts | 49° |
| 2026-05-06 18:39 | 57.55277 | 11.96934 | 7022 ft | 302 kts | 40° |
| 2026-05-06 18:40 | 57.58895 | 12.00959 | 6762 ft | 305 kts | 28° |
| 2026-05-06 18:40 | 57.60136 | 12.02161 | 6563 ft | 302 kts | 28° |
| 2026-05-06 18:40 | 57.61987 | 12.03969 | 6260 ft | 301 kts | 28° |
| 2026-05-06 18:40 | 57.63847 | 12.05795 | 5897 ft | 302 kts | 28° |
| 2026-05-06 18:41 | 57.66301 | 12.08208 | 5383 ft | 298 kts | 28° |
| 2026-05-06 18:41 | 57.67534 | 12.09419 | 5117 ft | 296 kts | 28° |
| 2026-05-06 18:41 | 57.69354 | 12.11206 | 4737 ft | 295 kts | 28° |
| 2026-05-06 18:41 | 57.71168 | 12.12989 | 4345 ft | 294 kts | 28° |
| 2026-05-06 18:42 | 57.72965 | 12.14758 | 3988 ft | 289 kts | 28° |
| 2026-05-06 18:42 | 57.74743 | 12.16512 | 3654 ft | 289 kts | 27° |
| 2026-05-06 18:42 | 57.76512 | 12.18258 | 3329 ft | 286 kts | 27° |
| 2026-05-06 18:42 | 57.78260 | 12.19986 | 2989 ft | 281 kts | 27° |
| 2026-05-06 18:43 | 57.79982 | 12.21691 | 2710 ft | 278 kts | 27° |
| 2026-05-06 18:43 | 57.81670 | 12.23363 | 2559 ft | 277 kts | 26° |
| 2026-05-06 18:43 | 57.83368 | 12.25048 | 2501 ft | 275 kts | 26° |
| 2026-05-06 18:43 | 57.85060 | 12.26734 | 2503 ft | 276 kts | 29° |
| 2026-05-06 18:44 | 57.86465 | 12.29173 | 2505 ft | 279 kts | 56° |
| 2026-05-06 18:44 | 57.87153 | 12.32566 | 2506 ft | 281 kts | 80° |
| 2026-05-06 18:44 | 57.87203 | 12.36220 | 2500 ft | 282 kts | 100° |
| 2026-05-06 18:44 | 57.86438 | 12.39584 | 2503 ft | 278 kts | 127° |
| 2026-05-06 18:45 | 57.85024 | 12.41805 | 2498 ft | 256 kts | 156° |
| 2026-05-06 18:45 | 57.83378 | 12.42419 | 2501 ft | 232 kts | 183° |
| 2026-05-06 18:45 | 57.81827 | 12.41919 | 2506 ft | 226 kts | 199° |
| 2026-05-06 18:45 | 57.80371 | 12.40844 | 2500 ft | 223 kts | 206° |
| 2026-05-06 18:46 | 57.78975 | 12.39580 | 2501 ft | 222 kts | 208° |
| 2026-05-06 18:46 | 57.77587 | 12.38307 | 2500 ft | 222 kts | 207° |
| 2026-05-06 18:46 | 57.76194 | 12.37029 | 2485 ft | 223 kts | 207° |
| 2026-05-06 18:46 | 57.74787 | 12.35743 | 2177 ft | 226 kts | 207° |
| 2026-05-06 18:47 | 57.73362 | 12.34439 | 1852 ft | 228 kts | 208° |
| 2026-05-06 18:47 | 57.71950 | 12.33149 | 1530 ft | 229 kts | 207° |
| 2026-05-06 18:47 | 57.70525 | 12.31848 | 1230 ft | 223 kts | 208° |
| 2026-05-06 18:47 | 57.69195 | 12.30637 | 899 ft | 200 kts | 208° |
| 2026-05-06 18:48 | 57.67945 | 12.29495 | 640 ft | 201 kts | 208° |
| 2026-05-06 18:48 | 57.66818 | 12.28417 | 506 ft | 137 kts | 207° |
| 2026-05-06 18:48 | 57.66192 | 12.27892 | 495 ft | 53 kts | 201° |
| 2026-05-06 18:48 | 57.65912 | 12.27684 | 495 ft | 37 kts | 192° |
| 2026-05-06 18:49 | 57.65727 | 12.27708 | 496 ft | 18 kts | 140° |
| 2026-05-06 18:49 | 57.65718 | 12.27737 | 494 ft | 0 kts | 99° |
| 2026-05-06 18:50 | 57.65717 | 12.27742 | 494 ft | 2 kts | 99° |
| 2026-05-06 18:50 | 57.65721 | 12.27788 | 496 ft | 7 kts | 71° |
| 2026-05-06 18:50 | 57.65790 | 12.27901 | 493 ft | 21 kts | 5° |
| 2026-05-06 18:51 | 57.65922 | 12.27997 | 496 ft | 15 kts | 26° |
| 2026-05-06 18:51 | 57.66025 | 12.28092 | 499 ft | 18 kts | 26° |
| 2026-05-06 18:51 | 57.66141 | 12.28197 | 500 ft | 19 kts | 25° |
| 2026-05-06 18:51 | 57.66265 | 12.28305 | 501 ft | 20 kts | 24° |
| 2026-05-06 18:52 | 57.66393 | 12.28425 | 503 ft | 21 kts | 28° |
| 2026-05-06 18:52 | 57.66528 | 12.28547 | 504 ft | 22 kts | 25° |
| 2026-05-06 18:52 | 57.66660 | 12.28668 | 505 ft | 19 kts | 26° |
| 2026-05-06 18:52 | 57.66782 | 12.28775 | 507 ft | 20 kts | 27° |
| 2026-05-06 18:53 | 57.66910 | 12.28895 | 508 ft | 21 kts | 26° |
| 2026-05-06 18:53 | 57.67015 | 12.28993 | 509 ft | 11 kts | 30° |
| 2026-05-06 18:53 | 57.67032 | 12.29115 | 510 ft | 12 kts | 114° |
| 2026-05-06 18:53 | 57.66990 | 12.29268 | 510 ft | 15 kts | 123° |
| 2026-05-06 18:54 | 57.66901 | 12.29282 | 509 ft | 15 kts | 205° |
| 2026-05-06 18:54 | 57.66860 | 12.29338 | 509 ft | 7 kts | 114° |
| 2026-05-06 18:54 | 57.66849 | 12.29376 | 509 ft | 0 kts | 118° |